createdAt,value
2022-09-09T00:00:23.070Z,99.90
2022-09-09T00:03:00.524Z,99.90
2022-09-09T00:05:38.379Z,99.90
2022-09-09T00:08:06.411Z,99.90
2022-09-09T00:10:39.119Z,99.90
2022-09-09T00:13:18.078Z,99.90
2022-09-09T00:15:55.324Z,99.90
2022-09-09T00:18:29.549Z,99.90
2022-09-09T00:21:05.330Z,99.90
2022-09-09T00:23:35.821Z,99.90
2022-09-09T00:26:10.325Z,99.90
2022-09-09T00:28:45.552Z,99.90
2022-09-09T00:31:19.188Z,99.90
2022-09-09T00:33:48.416Z,99.90
2022-09-09T00:36:23.788Z,99.90
2022-09-09T00:38:57.437Z,99.90
2022-09-09T00:41:33.111Z,99.90
2022-09-09T00:44:05.296Z,99.90
2022-09-09T00:46:52.511Z,99.90
2022-09-09T00:49:33.268Z,99.90
2022-09-09T00:52:14.276Z,99.90
2022-09-09T00:54:49.981Z,99.90
2022-09-09T00:57:29.216Z,99.90
2022-09-09T01:00:21.551Z,99.90
2022-09-09T01:02:59.914Z,99.90
2022-09-09T01:05:35.962Z,99.90
2022-09-09T01:08:13.942Z,99.90
2022-09-09T01:10:50.431Z,99.90
2022-09-09T01:13:24.635Z,99.90
2022-09-09T01:15:56.324Z,99.90
2022-09-09T01:18:35.366Z,99.90
2022-09-09T01:21:11.266Z,99.90
2022-09-09T01:24:06.844Z,99.90
2022-09-09T01:26:37.428Z,99.90
2022-09-09T01:29:08.882Z,99.90
2022-09-09T01:31:39.982Z,99.90
2022-09-09T01:34:13.339Z,99.90
2022-09-09T01:36:44.862Z,99.90
2022-09-09T01:39:13.542Z,99.90
2022-09-09T01:41:42.842Z,99.90
2022-09-09T01:44:11.558Z,99.90
2022-09-09T01:46:39.667Z,99.90
2022-09-09T01:49:09.366Z,99.90
2022-09-09T01:51:38.474Z,99.90
2022-09-09T01:54:06.860Z,99.90
2022-09-09T01:56:46.125Z,99.90
2022-09-09T01:59:33.260Z,99.90
2022-09-09T02:02:11.040Z,99.90
2022-09-09T02:04:42.182Z,99.90
2022-09-09T02:07:24.322Z,99.90
2022-09-09T02:10:00.737Z,99.90
2022-09-09T02:12:31.277Z,99.90
2022-09-09T02:15:04.807Z,99.90
2022-09-09T02:17:35.536Z,99.90
2022-09-09T02:20:08.191Z,99.90
2022-09-09T02:22:40.452Z,99.90
2022-09-09T02:25:12.790Z,99.90
2022-09-09T02:27:45.115Z,99.90
2022-09-09T02:30:14.642Z,99.90
2022-09-09T02:32:45.346Z,99.90
2022-09-09T02:35:16.407Z,99.90
2022-09-09T02:37:47.094Z,99.90
2022-09-09T02:40:17.182Z,99.90
2022-09-09T02:42:48.342Z,99.90
2022-09-09T02:45:19.558Z,99.90
2022-09-09T02:47:53.655Z,99.90
2022-09-09T02:50:27.902Z,99.90
2022-09-09T02:53:06.645Z,99.90
2022-09-09T02:55:40.994Z,99.90
2022-09-09T02:58:13.482Z,99.90
2022-09-09T03:00:42.168Z,99.90
2022-09-09T03:03:10.812Z,99.90
2022-09-09T03:05:39.576Z,99.90
2022-09-09T03:08:07.718Z,99.90
2022-09-09T03:10:36.157Z,99.90
2022-09-09T03:13:05.266Z,99.90
2022-09-09T03:15:34.865Z,99.90
2022-09-09T03:18:03.300Z,99.90
2022-09-09T03:20:32.123Z,99.90
2022-09-09T03:23:01.733Z,99.90
2022-09-09T03:25:29.928Z,99.90
2022-09-09T03:27:58.142Z,99.90
2022-09-09T03:30:27.410Z,99.90
2022-09-09T03:32:57.624Z,99.90
2022-09-09T03:35:26.104Z,99.90
2022-09-09T03:37:54.080Z,99.90
2022-09-09T03:40:21.899Z,99.90
2022-09-09T03:42:50.090Z,99.90
2022-09-09T03:45:18.173Z,99.90
2022-09-09T03:47:46.017Z,99.90
2022-09-09T03:50:15.240Z,99.90
2022-09-09T03:52:44.771Z,99.90
2022-09-09T03:55:12.639Z,99.90
2022-09-09T03:57:40.455Z,99.90
2022-09-09T04:00:10.531Z,99.90
2022-09-09T04:02:38.443Z,99.90
2022-09-09T04:05:07.961Z,99.90
2022-09-09T04:07:37.153Z,99.90
2022-09-09T04:10:05.439Z,99.90
2022-09-09T04:12:33.263Z,99.90
2022-09-09T04:15:01.777Z,99.90
2022-09-09T04:17:29.732Z,99.90
2022-09-09T04:19:58.023Z,99.90
2022-09-09T04:22:25.900Z,99.90
2022-09-09T04:24:55.070Z,99.90
2022-09-09T04:27:22.917Z,99.90
2022-09-09T04:29:50.745Z,99.90
2022-09-09T04:32:18.645Z,99.90
2022-09-09T04:34:48.700Z,99.90
2022-09-09T04:37:17.759Z,99.90
2022-09-09T04:39:46.211Z,99.90
2022-09-09T04:42:15.469Z,99.90
2022-09-09T04:44:43.280Z,99.90
2022-09-09T04:47:11.158Z,99.90
2022-09-09T04:49:39.428Z,99.90
2022-09-09T04:52:07.390Z,99.90
2022-09-09T04:54:35.201Z,99.90
2022-09-09T04:57:03.125Z,99.90
2022-09-09T04:59:32.322Z,99.90
2022-09-09T05:02:01.971Z,99.90
2022-09-09T05:04:30.563Z,99.90
2022-09-09T05:06:58.890Z,99.90
2022-09-09T05:09:26.776Z,99.90
2022-09-09T05:11:54.656Z,99.90
2022-09-09T05:14:23.561Z,99.90
2022-09-09T05:16:52.804Z,99.90
2022-09-09T05:19:20.866Z,99.90
2022-09-09T05:21:48.819Z,99.90
2022-09-09T05:24:16.727Z,99.90
2022-09-09T05:26:45.072Z,99.90
2022-09-09T05:29:13.078Z,99.90
2022-09-09T05:31:42.431Z,99.90
2022-09-09T05:34:12.270Z,99.90
2022-09-09T05:36:40.361Z,99.90
2022-09-09T05:39:08.185Z,99.90
2022-09-09T05:41:36.853Z,99.90
2022-09-09T05:44:04.786Z,99.90
2022-09-09T05:46:32.799Z,99.90
2022-09-09T05:49:01.218Z,99.90
2022-09-09T05:51:31.375Z,99.90
2022-09-09T05:54:00.375Z,99.90
2022-09-09T05:56:30.029Z,99.90
2022-09-09T05:58:58.407Z,99.90
2022-09-09T06:01:28.484Z,99.90
2022-09-09T06:03:57.117Z,99.90
2022-09-09T06:06:27.019Z,99.90
2022-09-09T06:08:58.313Z,99.90
2022-09-09T06:11:28.759Z,99.90
2022-09-09T06:13:56.614Z,99.90
2022-09-09T06:16:26.458Z,99.90
2022-09-09T06:18:55.631Z,99.90
2022-09-09T06:21:25.051Z,99.90
2022-09-09T06:23:57.803Z,99.90
2022-09-09T06:26:31.583Z,99.90
2022-09-09T06:29:00.256Z,99.90
2022-09-09T06:31:31.603Z,99.90
2022-09-09T06:34:00.835Z,99.90
2022-09-09T06:36:30.371Z,99.90
2022-09-09T06:38:58.443Z,99.90
2022-09-09T06:41:29.439Z,99.90
2022-09-09T06:43:57.648Z,99.90
2022-09-09T06:46:28.757Z,99.90
2022-09-09T06:48:59.828Z,99.90
2022-09-09T06:51:29.228Z,99.90
2022-09-09T06:53:59.196Z,99.90
2022-09-09T06:56:30.750Z,99.90
2022-09-09T06:59:01.972Z,99.90
2022-09-09T07:01:32.708Z,99.90
2022-09-09T07:04:01.650Z,99.90
2022-09-09T07:06:31.077Z,99.90
2022-09-09T07:09:00.735Z,99.90
2022-09-09T07:11:32.659Z,99.90
2022-09-09T07:14:02.297Z,99.90
2022-09-09T07:16:32.699Z,99.90
2022-09-09T07:19:01.600Z,99.90
2022-09-09T07:21:31.565Z,99.90
2022-09-09T07:23:59.820Z,99.90
2022-09-09T07:26:29.498Z,99.90
2022-09-09T07:28:59.128Z,99.90
2022-09-09T07:31:29.254Z,99.90
2022-09-09T07:33:57.349Z,99.90
2022-09-09T07:36:31.270Z,99.90
2022-09-09T07:39:02.779Z,99.90
2022-09-09T07:41:35.114Z,99.90
2022-09-09T07:44:08.594Z,99.90
2022-09-09T07:46:37.649Z,99.90
2022-09-09T07:49:05.890Z,99.90
2022-09-09T07:51:35.887Z,99.90
2022-09-09T07:54:05.850Z,99.90
2022-09-09T07:56:34.412Z,99.90
2022-09-09T07:59:02.420Z,99.90
2022-09-09T08:01:33.916Z,99.90
2022-09-09T08:04:03.209Z,99.90
2022-09-09T08:06:34.149Z,99.90
2022-09-09T08:09:02.607Z,99.90
2022-09-09T08:11:35.368Z,99.90
2022-09-09T08:14:07.034Z,99.90
2022-09-09T08:16:37.882Z,99.90
2022-09-09T08:19:06.506Z,99.90
2022-09-09T08:21:37.570Z,99.90
2022-09-09T08:24:06.904Z,99.90
2022-09-09T08:26:37.168Z,99.90
2022-09-09T08:29:07.563Z,99.90
2022-09-09T08:31:38.984Z,99.90
2022-09-09T08:34:08.286Z,99.90
2022-09-09T08:36:38.037Z,99.90
2022-09-09T08:39:07.890Z,99.90
2022-09-09T08:42:01.474Z,99.90
2022-09-09T08:44:48.122Z,99.90
2022-09-09T08:47:33.726Z,99.90
2022-09-09T08:50:13.545Z,99.90
2022-09-09T08:52:49.400Z,99.90
2022-09-09T08:55:26.509Z,99.90
2022-09-09T08:57:58.046Z,99.90
2022-09-09T09:00:34.870Z,99.90
2022-09-09T09:03:13.985Z,99.90
2022-09-09T09:05:49.448Z,99.90
2022-09-09T09:08:27.590Z,99.90
2022-09-09T09:10:58.901Z,99.90
2022-09-09T09:13:35.014Z,99.90
2022-09-09T09:16:08.496Z,99.90
2022-09-09T09:18:38.727Z,99.90
2022-09-09T09:21:14.282Z,99.90
2022-09-09T09:23:47.768Z,99.90
2022-09-09T09:26:15.596Z,99.90
2022-09-09T09:28:43.563Z,99.90
2022-09-09T09:31:12.875Z,99.90
2022-09-09T09:33:50.421Z,99.90
2022-09-09T09:36:19.094Z,99.90
2022-09-09T09:41:46.551Z,99.90
2022-09-09T09:44:25.640Z,99.90
2022-09-09T09:46:54.157Z,99.90
2022-09-09T09:49:24.096Z,99.90
2022-09-09T09:51:53.173Z,99.90
2022-09-09T09:54:29.955Z,99.90
2022-09-09T09:56:58.671Z,99.90
2022-09-09T09:59:39.647Z,99.90
2022-09-09T10:02:17.549Z,99.90
2022-09-09T10:04:47.308Z,99.90
2022-09-09T10:07:19.911Z,99.90
2022-09-09T10:09:52.891Z,99.90
2022-09-09T10:12:32.848Z,99.90
2022-09-09T10:15:07.905Z,99.90
2022-09-09T10:17:42.805Z,99.90
2022-09-09T10:20:25.351Z,99.90
2022-09-09T10:22:56.337Z,99.90
2022-09-09T10:25:40.539Z,99.90
2022-09-09T10:28:38.140Z,99.90
2022-09-09T10:31:18.515Z,99.90
2022-09-09T10:33:52.316Z,99.90
2022-09-09T10:36:25.459Z,99.90
2022-09-09T10:39:01.106Z,99.90
2022-09-09T10:41:42.515Z,99.90
2022-09-09T10:44:24.789Z,99.90
2022-09-09T10:47:08.074Z,99.70
2022-09-09T10:50:12.914Z,99.40
2022-09-09T10:52:53.541Z,98.00
2022-09-09T10:55:26.728Z,96.00
2022-09-09T10:58:01.030Z,92.80
2022-09-09T11:00:40.741Z,90.30
2022-09-09T11:03:12.901Z,89.80
2022-09-09T11:05:45.798Z,90.60
2022-09-09T11:08:19.975Z,91.10
2022-09-09T11:10:56.183Z,91.00
2022-09-09T11:13:28.821Z,91.10
2022-09-09T11:16:03.215Z,91.40
2022-09-09T11:18:33.732Z,91.50
2022-09-09T11:21:04.937Z,91.90
2022-09-09T11:23:42.316Z,92.90
2022-09-09T11:26:16.181Z,93.50
2022-09-09T11:29:04.087Z,94.00
2022-09-09T11:31:45.934Z,94.30
2022-09-09T11:37:26.389Z,94.70
2022-09-09T11:40:11.934Z,94.70
2022-09-09T11:42:40.306Z,94.30
2022-09-09T11:45:13.937Z,93.80
2022-09-09T11:47:41.862Z,92.70
2022-09-09T11:50:13.244Z,92.60
2022-09-09T11:52:44.036Z,92.60
2022-09-09T11:55:26.804Z,92.00
2022-09-09T11:58:00.164Z,92.30
2022-09-09T12:00:38.051Z,92.60
2022-09-09T12:03:06.932Z,92.50
2022-09-09T12:05:41.401Z,92.40
2022-09-09T12:08:13.727Z,92.40
2022-09-09T12:10:43.031Z,92.70
2022-09-09T12:13:18.641Z,93.00
2022-09-09T12:15:50.870Z,93.20
2022-09-09T12:18:24.568Z,93.30
2022-09-09T12:20:59.091Z,93.30
2022-09-09T12:23:39.040Z,93.20
2022-09-09T12:26:29.336Z,93.30
2022-09-09T12:29:22.427Z,93.00
2022-09-09T12:31:58.531Z,92.30
2022-09-09T12:34:37.921Z,92.20
2022-09-09T12:37:13.790Z,92.00
2022-09-09T12:39:47.316Z,91.70
2022-09-09T12:42:21.200Z,91.60
2022-09-09T12:44:56.936Z,92.10
2022-09-09T12:47:31.536Z,92.40
2022-09-09T12:50:00.330Z,92.70
2022-09-09T12:52:32.696Z,93.00
2022-09-09T12:55:03.499Z,92.90
2022-09-09T12:57:37.570Z,92.90
2022-09-09T13:00:16.819Z,92.50
2022-09-09T13:02:51.134Z,92.10
2022-09-09T13:05:23.122Z,91.60
2022-09-09T13:07:51.266Z,91.40
2022-09-09T13:10:36.585Z,91.20
2022-09-09T13:13:08.234Z,91.40
2022-09-09T13:15:36.120Z,91.30
2022-09-09T13:18:09.226Z,91.20
2022-09-09T13:20:38.098Z,91.20
2022-09-09T13:23:05.988Z,91.00
2022-09-09T13:25:37.205Z,90.30
2022-09-09T13:28:25.415Z,90.20
2022-09-09T13:31:04.322Z,90.80
2022-09-09T13:33:34.638Z,91.20
2022-09-09T13:36:05.837Z,91.10
2022-09-09T13:38:35.634Z,91.40
2022-09-09T13:41:05.710Z,91.80
2022-09-09T13:43:39.389Z,91.70
2022-09-09T13:46:26.876Z,91.30
2022-09-09T13:48:58.100Z,90.50
2022-09-09T13:51:35.119Z,90.00
2022-09-09T13:54:03.020Z,89.20
2022-09-09T13:56:30.990Z,88.70
2022-09-09T13:59:00.212Z,88.10
2022-09-09T14:01:29.669Z,87.30
2022-09-09T14:03:58.156Z,87.60
2022-09-09T14:06:26.193Z,88.80
2022-09-09T14:08:55.605Z,88.70
2022-09-09T14:11:23.600Z,89.60
2022-09-09T14:13:51.851Z,90.50
2022-09-09T14:16:21.364Z,90.80
2022-09-09T14:18:49.803Z,90.70
2022-09-09T14:21:17.704Z,91.40
2022-09-09T14:23:45.606Z,91.90
2022-09-09T14:26:14.175Z,92.30
2022-09-09T14:28:54.842Z,92.80
2022-09-09T14:31:24.871Z,93.30
2022-09-09T14:33:53.503Z,93.70
2022-09-09T14:36:21.809Z,94.20
2022-09-09T14:38:49.763Z,94.30
2022-09-09T14:41:19.689Z,94.80
2022-09-09T14:43:48.232Z,96.50
2022-09-09T14:46:17.953Z,99.20
2022-09-09T14:48:49.371Z,99.90
2022-09-09T14:51:20.442Z,99.90
2022-09-09T14:53:48.782Z,99.90
2022-09-09T14:56:19.708Z,99.90
2022-09-09T14:58:47.666Z,99.90
2022-09-09T15:01:17.275Z,99.90
2022-09-09T15:03:53.089Z,99.90
2022-09-09T15:06:21.631Z,99.90
2022-09-09T15:08:49.969Z,99.90
2022-09-09T15:11:17.963Z,99.90
2022-09-09T15:13:46.368Z,99.90
2022-09-09T15:16:16.062Z,99.90
2022-09-09T15:18:45.796Z,99.90
2022-09-09T15:21:18.039Z,99.90
2022-09-09T15:23:45.891Z,99.90
2022-09-09T15:26:15.020Z,99.90
2022-09-09T15:28:44.596Z,99.90
2022-09-09T15:31:18.414Z,99.90
2022-09-09T15:33:49.440Z,99.90
2022-09-09T15:36:21.826Z,99.90
2022-09-09T15:38:49.974Z,99.90
2022-09-09T15:41:19.180Z,99.90
2022-09-09T15:43:48.238Z,99.90
2022-09-09T15:46:29.337Z,99.90
2022-09-09T15:48:59.390Z,99.90
2022-09-09T15:51:42.283Z,99.90
2022-09-09T15:54:13.272Z,99.90
2022-09-09T15:56:41.354Z,99.90
2022-09-09T15:59:09.201Z,99.90
2022-09-09T16:01:37.443Z,99.90
2022-09-09T16:04:05.562Z,99.90
2022-09-09T16:06:35.203Z,99.90
2022-09-09T16:09:06.209Z,99.90
2022-09-09T16:11:36.004Z,99.90
2022-09-09T16:14:04.955Z,99.90
2022-09-09T16:16:33.311Z,99.90
2022-09-09T16:19:05.055Z,99.90
2022-09-09T16:21:36.458Z,99.90
2022-09-09T16:24:05.739Z,99.90
2022-09-09T16:26:35.711Z,99.90
2022-09-09T16:29:04.507Z,99.90
2022-09-09T16:31:34.116Z,99.90
2022-09-09T16:34:04.190Z,99.90
2022-09-09T16:36:36.048Z,99.90
2022-09-09T16:39:06.428Z,99.90
2022-09-09T16:41:35.102Z,99.90
2022-09-09T16:44:04.698Z,99.90
2022-09-09T16:46:35.039Z,99.90
2022-09-09T16:49:04.789Z,99.90
2022-09-09T16:51:36.083Z,99.90
2022-09-09T16:54:07.741Z,99.90
2022-09-09T16:56:38.787Z,99.90
2022-09-09T16:59:08.329Z,99.90
2022-09-09T17:01:38.780Z,99.90
2022-09-09T17:04:08.680Z,99.90
2022-09-09T17:06:38.998Z,99.90
2022-09-09T17:09:09.185Z,99.90
2022-09-09T17:11:38.054Z,99.90
2022-09-09T17:14:07.324Z,99.90
2022-09-09T17:16:36.137Z,99.90
2022-09-09T17:19:05.688Z,99.90
2022-09-09T17:21:34.419Z,99.90
2022-09-09T17:24:04.028Z,99.90
2022-09-09T17:26:34.041Z,99.90
2022-09-09T17:29:03.695Z,99.90
2022-09-09T17:31:32.217Z,99.90
2022-09-09T17:34:00.499Z,99.90
2022-09-09T17:36:31.035Z,99.90
2022-09-09T17:39:00.655Z,99.90
2022-09-09T17:41:31.244Z,99.90
2022-09-09T17:44:00.483Z,99.90
2022-09-09T17:46:30.365Z,99.90
2022-09-09T17:49:00.338Z,99.90
2022-09-09T17:51:30.527Z,99.90
2022-09-09T17:54:00.819Z,99.90
2022-09-09T17:56:32.622Z,99.90
2022-09-09T17:59:01.683Z,99.90
2022-09-09T18:01:32.205Z,99.90
2022-09-09T18:04:02.382Z,99.90
2022-09-09T18:06:33.767Z,99.90
2022-09-09T18:09:03.512Z,99.90
2022-09-09T18:11:35.342Z,99.90
2022-09-09T18:14:04.445Z,99.90
2022-09-09T18:16:36.086Z,99.90
2022-09-09T18:19:06.514Z,99.90
2022-09-09T18:21:35.516Z,99.90
2022-09-09T18:24:07.128Z,99.90
2022-09-09T18:26:37.170Z,99.90
2022-09-09T18:29:07.322Z,99.90
2022-09-09T18:31:37.639Z,99.90
2022-09-09T18:34:07.196Z,99.90
2022-09-09T18:36:37.158Z,99.90
2022-09-09T18:39:06.816Z,99.90
2022-09-09T18:41:38.218Z,99.90
2022-09-09T18:44:09.298Z,99.90
2022-09-09T18:46:39.870Z,99.90
2022-09-09T18:49:11.448Z,99.90
2022-09-09T18:51:41.060Z,99.90
2022-09-09T18:54:12.829Z,99.90
2022-09-09T18:56:42.327Z,99.90
2022-09-09T18:59:13.085Z,99.90
2022-09-09T19:01:42.180Z,99.90
2022-09-09T19:04:10.119Z,99.90
2022-09-09T19:06:40.284Z,99.90
2022-09-09T19:09:10.904Z,99.90
2022-09-09T19:11:40.671Z,99.90
2022-09-09T19:14:11.926Z,99.90
2022-09-09T19:16:40.429Z,99.90
2022-09-09T19:19:10.743Z,99.90
2022-09-09T19:21:40.756Z,99.90
2022-09-09T19:24:12.318Z,99.90
2022-09-09T19:26:43.901Z,99.90
2022-09-09T19:29:15.397Z,99.90
2022-09-09T19:31:59.519Z,99.90
2022-09-09T19:34:31.687Z,99.90
2022-09-09T19:37:00.132Z,99.90
2022-09-09T19:39:28.005Z,99.90
2022-09-09T19:41:57.215Z,99.90
2022-09-09T19:44:26.042Z,99.90
2022-09-09T19:46:55.355Z,99.90
2022-09-09T19:49:23.417Z,99.90
2022-09-09T19:51:51.555Z,99.90
2022-09-09T19:54:19.422Z,99.90
2022-09-09T19:56:47.259Z,99.90
2022-09-09T19:59:16.471Z,99.90
2022-09-09T20:01:46.273Z,99.90
2022-09-09T20:04:15.395Z,99.90
2022-09-09T20:06:44.889Z,99.90
2022-09-09T20:09:15.440Z,99.90
2022-09-09T20:11:44.311Z,99.90
2022-09-09T20:14:12.986Z,99.90
2022-09-09T20:16:43.185Z,99.90
2022-09-09T20:19:13.192Z,99.90
2022-09-09T20:21:47.592Z,99.90
2022-09-09T20:24:17.161Z,99.90
2022-09-09T20:26:46.333Z,99.90
2022-09-09T20:29:16.498Z,99.90
2022-09-09T20:31:46.055Z,99.90
2022-09-09T20:34:16.230Z,99.90
2022-09-09T20:36:44.555Z,99.90
2022-09-09T20:39:14.818Z,99.90
2022-09-09T20:41:45.355Z,99.90
2022-09-09T20:44:16.009Z,99.90
2022-09-09T20:46:47.899Z,99.90
2022-09-09T20:49:17.387Z,99.90
2022-09-09T20:51:46.481Z,99.90
2022-09-09T20:54:16.239Z,99.90
2022-09-09T20:56:46.071Z,99.90
2022-09-09T20:59:15.803Z,99.90
2022-09-09T21:01:47.251Z,99.90
2022-09-09T21:04:16.507Z,99.90
2022-09-09T21:06:44.491Z,99.90
2022-09-09T21:09:12.417Z,99.90
2022-09-09T21:11:40.371Z,99.90
2022-09-09T21:14:08.406Z,99.90
2022-09-09T21:16:36.280Z,99.90
2022-09-09T21:19:05.487Z,99.90
2022-09-09T21:21:33.328Z,99.90
2022-09-09T21:24:02.749Z,99.90
2022-09-09T21:26:30.668Z,99.90
2022-09-09T21:28:58.560Z,99.90
2022-09-09T21:31:28.332Z,99.90
2022-09-09T21:33:56.958Z,99.90
2022-09-09T21:36:28.265Z,99.90
2022-09-09T21:38:56.762Z,99.90
2022-09-09T21:41:24.749Z,99.90
2022-09-09T21:43:54.200Z,99.90
2022-09-09T21:46:23.180Z,99.90
2022-09-09T21:48:51.635Z,99.90
2022-09-09T21:51:19.663Z,99.90
2022-09-09T21:53:48.932Z,99.90
2022-09-09T21:56:19.919Z,99.90
2022-09-09T21:58:47.779Z,99.90
2022-09-09T22:01:17.760Z,99.90
2022-09-09T22:03:46.610Z,99.90
2022-09-09T22:06:15.942Z,99.90
2022-09-09T22:08:44.278Z,99.90
2022-09-09T22:11:15.190Z,99.90
2022-09-09T22:13:44.658Z,99.90
2022-09-09T22:16:15.234Z,99.90
2022-09-09T22:18:43.365Z,99.90
2022-09-09T22:21:13.191Z,99.90
2022-09-09T22:23:41.086Z,99.90
2022-09-09T22:26:09.506Z,99.90
2022-09-09T22:28:39.530Z,99.90
2022-09-09T22:31:07.735Z,99.90
2022-09-09T22:33:37.338Z,99.90
2022-09-09T22:36:05.833Z,99.90
2022-09-09T22:38:36.295Z,99.90
2022-09-09T22:41:05.043Z,99.90
2022-09-09T22:43:33.939Z,99.90
2022-09-09T22:46:04.125Z,99.90
2022-09-09T22:48:34.084Z,99.90
2022-09-09T22:51:04.196Z,99.90
2022-09-09T22:53:36.036Z,99.90
2022-09-09T22:56:07.021Z,99.90
2022-09-09T22:58:37.628Z,99.90
2022-09-09T23:01:13.910Z,99.90
2022-09-09T23:03:42.422Z,99.90
2022-09-09T23:06:15.518Z,99.90
2022-09-09T23:08:43.684Z,99.90
2022-09-09T23:11:14.270Z,99.90
2022-09-09T23:13:47.995Z,99.90
2022-09-09T23:16:19.994Z,99.90
2022-09-09T23:18:48.426Z,99.90
2022-09-09T23:21:17.334Z,99.90
2022-09-09T23:23:45.467Z,99.90
2022-09-09T23:26:20.256Z,99.90
2022-09-09T23:28:49.787Z,99.90
2022-09-09T23:31:24.832Z,99.90
2022-09-09T23:33:54.256Z,99.90
2022-09-09T23:36:24.632Z,99.90
2022-09-09T23:38:53.565Z,99.90
2022-09-09T23:41:21.971Z,99.90
2022-09-09T23:43:50.040Z,99.90
2022-09-09T23:46:21.901Z,99.90
2022-09-09T23:48:50.991Z,99.90
2022-09-09T23:51:20.242Z,99.90
2022-09-09T23:53:51.069Z,99.90
2022-09-09T23:56:20.315Z,99.90
2022-09-09T23:58:48.764Z,99.90
